sensor_id;sensor_type;location;lat;lon;timestamp;P1;durP1;ratioP1;P2;durP2;ratioP2
20894;SDS011;10607;42.066;24.742;2023-05-10T00:03:55;12.57;;;5.50;;
20894;SDS011;10607;42.066;24.742;2023-05-10T00:06:20;10.03;;;5.37;;
20894;SDS011;10607;42.066;24.742;2023-05-10T00:08:45;8.90;;;4.80;;
20894;SDS011;10607;42.066;24.742;2023-05-10T00:11:10;6.30;;;5.37;;
20894;SDS011;10607;42.066;24.742;2023-05-10T00:13:36;10.23;;;5.07;;
20894;SDS011;10607;42.066;24.742;2023-05-10T00:16:01;7.53;;;5.33;;
20894;SDS011;10607;42.066;24.742;2023-05-10T00:18:26;8.13;;;5.30;;
20894;SDS011;10607;42.066;24.742;2023-05-10T00:20:52;8.13;;;5.30;;
20894;SDS011;10607;42.066;24.742;2023-05-10T00:23:17;8.43;;;5.40;;
20894;SDS011;10607;42.066;24.742;2023-05-10T00:25:42;7.33;;;5.30;;
20894;SDS011;10607;42.066;24.742;2023-05-10T00:28:07;10.40;;;5.43;;
20894;SDS011;10607;42.066;24.742;2023-05-10T00:30:33;12.00;;;6.23;;
20894;SDS011;10607;42.066;24.742;2023-05-10T00:32:58;9.77;;;6.00;;
20894;SDS011;10607;42.066;24.742;2023-05-10T00:35:23;10.40;;;6.23;;
20894;SDS011;10607;42.066;24.742;2023-05-10T00:37:49;8.57;;;5.73;;
20894;SDS011;10607;42.066;24.742;2023-05-10T00:40:14;12.50;;;6.90;;
20894;SDS011;10607;42.066;24.742;2023-05-10T00:42:39;10.13;;;6.33;;
20894;SDS011;10607;42.066;24.742;2023-05-10T00:45:05;12.33;;;6.80;;
20894;SDS011;10607;42.066;24.742;2023-05-10T00:47:31;11.90;;;6.73;;
20894;SDS011;10607;42.066;24.742;2023-05-10T00:49:56;9.20;;;6.50;;
20894;SDS011;10607;42.066;24.742;2023-05-10T00:52:21;11.87;;;6.50;;
20894;SDS011;10607;42.066;24.742;2023-05-10T00:54:49;8.77;;;6.73;;
20894;SDS011;10607;42.066;24.742;2023-05-10T00:57:15;15.47;;;7.10;;
20894;SDS011;10607;42.066;24.742;2023-05-10T00:59:40;12.87;;;7.17;;
20894;SDS011;10607;42.066;24.742;2023-05-10T01:02:06;11.87;;;7.37;;
20894;SDS011;10607;42.066;24.742;2023-05-10T01:04:31;11.77;;;7.03;;
20894;SDS011;10607;42.066;24.742;2023-05-10T01:06:56;10.07;;;7.13;;
20894;SDS011;10607;42.066;24.742;2023-05-10T01:09:22;10.37;;;7.43;;
20894;SDS011;10607;42.066;24.742;2023-05-10T01:11:47;12.03;;;7.50;;
20894;SDS011;10607;42.066;24.742;2023-05-10T01:14:13;13.67;;;7.90;;
20894;SDS011;10607;42.066;24.742;2023-05-10T01:16:40;12.10;;;7.90;;
20894;SDS011;10607;42.066;24.742;2023-05-10T01:22:04;15.83;;;8.63;;
20894;SDS011;10607;42.066;24.742;2023-05-10T01:24:45;11.10;;;8.00;;
20894;SDS011;10607;42.066;24.742;2023-05-10T01:38:01;14.57;;;8.07;;
20894;SDS011;10607;42.066;24.742;2023-05-10T01:40:48;17.07;;;8.00;;
20894;SDS011;10607;42.066;24.742;2023-05-10T01:43:19;13.50;;;8.37;;
20894;SDS011;10607;42.066;24.742;2023-05-10T01:45:49;14.47;;;8.10;;
20894;SDS011;10607;42.066;24.742;2023-05-10T01:48:15;15.73;;;8.27;;
20894;SDS011;10607;42.066;24.742;2023-05-10T01:50:42;14.30;;;8.97;;
20894;SDS011;10607;42.066;24.742;2023-05-10T01:53:08;12.77;;;8.53;;
20894;SDS011;10607;42.066;24.742;2023-05-10T01:55:35;18.43;;;9.70;;
20894;SDS011;10607;42.066;24.742;2023-05-10T01:58:05;17.13;;;9.63;;
20894;SDS011;10607;42.066;24.742;2023-05-10T02:00:31;13.03;;;9.43;;
20894;SDS011;10607;42.066;24.742;2023-05-10T02:02:57;14.37;;;8.77;;
20894;SDS011;10607;42.066;24.742;2023-05-10T02:05:22;19.40;;;8.70;;
20894;SDS011;10607;42.066;24.742;2023-05-10T02:07:49;12.23;;;8.90;;
20894;SDS011;10607;42.066;24.742;2023-05-10T02:10:15;16.37;;;8.50;;
20894;SDS011;10607;42.066;24.742;2023-05-10T02:12:41;16.33;;;8.97;;
20894;SDS011;10607;42.066;24.742;2023-05-10T02:15:07;14.50;;;8.93;;
20894;SDS011;10607;42.066;24.742;2023-05-10T02:17:32;14.97;;;9.27;;
20894;SDS011;10607;42.066;24.742;2023-05-10T02:19:59;15.00;;;9.33;;
20894;SDS011;10607;42.066;24.742;2023-05-10T02:22:26;16.97;;;9.23;;
20894;SDS011;10607;42.066;24.742;2023-05-10T02:24:52;17.07;;;9.37;;
20894;SDS011;10607;42.066;24.742;2023-05-10T02:27:18;13.53;;;8.60;;
20894;SDS011;10607;42.066;24.742;2023-05-10T02:29:44;16.77;;;9.00;;
20894;SDS011;10607;42.066;24.742;2023-05-10T02:32:10;21.13;;;11.43;;
20894;SDS011;10607;42.066;24.742;2023-05-10T02:34:36;17.13;;;10.00;;
20894;SDS011;10607;42.066;24.742;2023-05-10T02:37:01;18.40;;;9.93;;
20894;SDS011;10607;42.066;24.742;2023-05-10T02:39:27;15.87;;;10.33;;
20894;SDS011;10607;42.066;24.742;2023-05-10T02:41:53;26.07;;;10.77;;
20894;SDS011;10607;42.066;24.742;2023-05-10T02:44:20;18.30;;;11.17;;
20894;SDS011;10607;42.066;24.742;2023-05-10T02:46:45;20.97;;;11.87;;
20894;SDS011;10607;42.066;24.742;2023-05-10T02:49:11;19.30;;;11.07;;
20894;SDS011;10607;42.066;24.742;2023-05-10T02:51:39;20.50;;;10.33;;
20894;SDS011;10607;42.066;24.742;2023-05-10T02:54:10;23.27;;;11.87;;
20894;SDS011;10607;42.066;24.742;2023-05-10T02:56:38;18.40;;;10.97;;
20894;SDS011;10607;42.066;24.742;2023-05-10T02:59:05;18.27;;;11.43;;
20894;SDS011;10607;42.066;24.742;2023-05-10T03:01:31;25.77;;;12.17;;
20894;SDS011;10607;42.066;24.742;2023-05-10T03:03:56;18.43;;;11.70;;
20894;SDS011;10607;42.066;24.742;2023-05-10T03:06:21;15.90;;;10.50;;
20894;SDS011;10607;42.066;24.742;2023-05-10T03:08:47;17.30;;;10.83;;
20894;SDS011;10607;42.066;24.742;2023-05-10T03:16:10;22.07;;;11.70;;
20894;SDS011;10607;42.066;24.742;2023-05-10T03:19:01;17.67;;;11.33;;
20894;SDS011;10607;42.066;24.742;2023-05-10T03:21:22;20.47;;;11.60;;
20894;SDS011;10607;42.066;24.742;2023-05-10T03:23:51;15.63;;;11.20;;
20894;SDS011;10607;42.066;24.742;2023-05-10T03:26:19;19.00;;;11.33;;
20894;SDS011;10607;42.066;24.742;2023-05-10T03:28:45;23.67;;;11.33;;
20894;SDS011;10607;42.066;24.742;2023-05-10T03:31:12;17.83;;;11.30;;
20894;SDS011;10607;42.066;24.742;2023-05-10T03:33:45;18.43;;;10.90;;
20894;SDS011;10607;42.066;24.742;2023-05-10T03:36:11;18.80;;;11.93;;
20894;SDS011;10607;42.066;24.742;2023-05-10T03:38:36;20.63;;;11.83;;
20894;SDS011;10607;42.066;24.742;2023-05-10T03:41:01;15.00;;;10.53;;
20894;SDS011;10607;42.066;24.742;2023-05-10T03:43:27;20.50;;;11.83;;
20894;SDS011;10607;42.066;24.742;2023-05-10T03:45:52;23.50;;;11.17;;
20894;SDS011;10607;42.066;24.742;2023-05-10T03:48:17;21.07;;;11.27;;
20894;SDS011;10607;42.066;24.742;2023-05-10T03:50:42;18.87;;;10.90;;
20894;SDS011;10607;42.066;24.742;2023-05-10T03:53:08;23.53;;;11.23;;
20894;SDS011;10607;42.066;24.742;2023-05-10T03:55:33;19.10;;;12.20;;
20894;SDS011;10607;42.066;24.742;2023-05-10T03:58:01;19.90;;;11.50;;
20894;SDS011;10607;42.066;24.742;2023-05-10T04:00:26;22.67;;;11.63;;
20894;SDS011;10607;42.066;24.742;2023-05-10T04:02:51;20.10;;;12.13;;
20894;SDS011;10607;42.066;24.742;2023-05-10T04:05:16;19.53;;;12.03;;
20894;SDS011;10607;42.066;24.742;2023-05-10T04:07:42;18.00;;;11.57;;
20894;SDS011;10607;42.066;24.742;2023-05-10T04:10:09;20.17;;;11.67;;
20894;SDS011;10607;42.066;24.742;2023-05-10T04:12:34;20.60;;;11.77;;
20894;SDS011;10607;42.066;24.742;2023-05-10T04:14:59;18.20;;;11.87;;
20894;SDS011;10607;42.066;24.742;2023-05-10T04:17:25;17.07;;;11.90;;
20894;SDS011;10607;42.066;24.742;2023-05-10T04:19:50;20.87;;;12.63;;
20894;SDS011;10607;42.066;24.742;2023-05-10T04:22:18;17.60;;;11.43;;
20894;SDS011;10607;42.066;24.742;2023-05-10T04:24:43;18.83;;;12.43;;
20894;SDS011;10607;42.066;24.742;2023-05-10T04:27:08;17.27;;;11.83;;
20894;SDS011;10607;42.066;24.742;2023-05-10T04:29:34;19.73;;;11.50;;
20894;SDS011;10607;42.066;24.742;2023-05-10T04:31:59;22.23;;;11.90;;
20894;SDS011;10607;42.066;24.742;2023-05-10T04:34:24;19.30;;;12.17;;
20894;SDS011;10607;42.066;24.742;2023-05-10T04:36:50;18.40;;;12.17;;
20894;SDS011;10607;42.066;24.742;2023-05-10T04:39:15;20.90;;;11.63;;
20894;SDS011;10607;42.066;24.742;2023-05-10T04:41:41;17.37;;;10.77;;
20894;SDS011;10607;42.066;24.742;2023-05-10T04:44:06;19.47;;;11.67;;
20894;SDS011;10607;42.066;24.742;2023-05-10T04:46:31;18.53;;;10.83;;
20894;SDS011;10607;42.066;24.742;2023-05-10T04:48:56;15.10;;;10.83;;
20894;SDS011;10607;42.066;24.742;2023-05-10T04:51:22;20.93;;;11.10;;
20894;SDS011;10607;42.066;24.742;2023-05-10T04:53:47;24.90;;;11.13;;
20894;SDS011;10607;42.066;24.742;2023-05-10T04:56:12;16.93;;;10.87;;
20894;SDS011;10607;42.066;24.742;2023-05-10T04:58:38;19.33;;;11.60;;
20894;SDS011;10607;42.066;24.742;2023-05-10T05:01:06;18.53;;;11.33;;
20894;SDS011;10607;42.066;24.742;2023-05-10T05:03:33;15.80;;;10.90;;
20894;SDS011;10607;42.066;24.742;2023-05-10T05:05:58;16.57;;;10.67;;
20894;SDS011;10607;42.066;24.742;2023-05-10T05:08:23;21.97;;;11.40;;
20894;SDS011;10607;42.066;24.742;2023-05-10T05:10:49;14.67;;;10.90;;
20894;SDS011;10607;42.066;24.742;2023-05-10T05:13:15;21.10;;;11.40;;
20894;SDS011;10607;42.066;24.742;2023-05-10T05:15:40;16.10;;;11.00;;
20894;SDS011;10607;42.066;24.742;2023-05-10T05:18:05;15.90;;;11.30;;
20894;SDS011;10607;42.066;24.742;2023-05-10T05:20:34;20.57;;;11.50;;
20894;SDS011;10607;42.066;24.742;2023-05-10T05:22:59;19.47;;;10.47;;
20894;SDS011;10607;42.066;24.742;2023-05-10T05:25:25;16.20;;;9.27;;
20894;SDS011;10607;42.066;24.742;2023-05-10T05:27:50;19.13;;;10.00;;
20894;SDS011;10607;42.066;24.742;2023-05-10T05:30:15;15.33;;;8.97;;
20894;SDS011;10607;42.066;24.742;2023-05-10T05:32:41;19.93;;;9.97;;
20894;SDS011;10607;42.066;24.742;2023-05-10T05:35:06;18.13;;;10.33;;
20894;SDS011;10607;42.066;24.742;2023-05-10T05:37:32;17.97;;;10.60;;
20894;SDS011;10607;42.066;24.742;2023-05-10T05:39:57;17.70;;;9.90;;
20894;SDS011;10607;42.066;24.742;2023-05-10T05:42:22;22.67;;;9.93;;
20894;SDS011;10607;42.066;24.742;2023-05-10T05:44:48;18.57;;;9.77;;
20894;SDS011;10607;42.066;24.742;2023-05-10T05:47:13;19.30;;;11.60;;
20894;SDS011;10607;42.066;24.742;2023-05-10T05:49:38;17.07;;;11.57;;
20894;SDS011;10607;42.066;24.742;2023-05-10T05:52:04;22.60;;;11.67;;
20894;SDS011;10607;42.066;24.742;2023-05-10T05:54:30;15.17;;;10.80;;
20894;SDS011;10607;42.066;24.742;2023-05-10T05:56:59;20.27;;;11.37;;
20894;SDS011;10607;42.066;24.742;2023-05-10T05:59:25;18.20;;;10.93;;
20894;SDS011;10607;42.066;24.742;2023-05-10T06:01:50;18.83;;;11.07;;
20894;SDS011;10607;42.066;24.742;2023-05-10T06:04:16;17.80;;;12.07;;
20894;SDS011;10607;42.066;24.742;2023-05-10T06:06:42;13.70;;;10.23;;
20894;SDS011;10607;42.066;24.742;2023-05-10T06:09:07;20.13;;;11.70;;
20894;SDS011;10607;42.066;24.742;2023-05-10T06:11:33;19.50;;;9.77;;
20894;SDS011;10607;42.066;24.742;2023-05-10T06:13:58;23.53;;;11.60;;
20894;SDS011;10607;42.066;24.742;2023-05-10T06:16:24;16.03;;;10.60;;
20894;SDS011;10607;42.066;24.742;2023-05-10T06:18:49;20.07;;;9.90;;
20894;SDS011;10607;42.066;24.742;2023-05-10T06:21:15;16.53;;;8.83;;
20894;SDS011;10607;42.066;24.742;2023-05-10T06:23:41;13.57;;;9.27;;
20894;SDS011;10607;42.066;24.742;2023-05-10T06:26:06;15.87;;;9.87;;
20894;SDS011;10607;42.066;24.742;2023-05-10T06:28:31;14.70;;;9.13;;
20894;SDS011;10607;42.066;24.742;2023-05-10T06:30:58;19.67;;;9.70;;
20894;SDS011;10607;42.066;24.742;2023-05-10T06:33:23;14.03;;;8.23;;
20894;SDS011;10607;42.066;24.742;2023-05-10T06:35:49;17.63;;;9.40;;
20894;SDS011;10607;42.066;24.742;2023-05-10T06:38:14;19.73;;;8.70;;
20894;SDS011;10607;42.066;24.742;2023-05-10T06:40:43;13.23;;;8.23;;
20894;SDS011;10607;42.066;24.742;2023-05-10T06:43:08;19.43;;;8.47;;
20894;SDS011;10607;42.066;24.742;2023-05-10T06:45:34;12.73;;;7.73;;
20894;SDS011;10607;42.066;24.742;2023-05-10T06:47:59;13.77;;;8.57;;
20894;SDS011;10607;42.066;24.742;2023-05-10T06:50:24;14.40;;;8.23;;
20894;SDS011;10607;42.066;24.742;2023-05-10T06:52:50;22.43;;;8.90;;
20894;SDS011;10607;42.066;24.742;2023-05-10T06:55:15;14.05;;;8.18;;
20894;SDS011;10607;42.066;24.742;2023-05-10T06:57:40;14.07;;;8.63;;
20894;SDS011;10607;42.066;24.742;2023-05-10T07:00:06;11.25;;;8.45;;
20894;SDS011;10607;42.066;24.742;2023-05-10T07:02:31;16.30;;;10.43;;
20894;SDS011;10607;42.066;24.742;2023-05-10T07:04:57;13.95;;;8.40;;
20894;SDS011;10607;42.066;24.742;2023-05-10T07:07:22;15.35;;;8.55;;
20894;SDS011;10607;42.066;24.742;2023-05-10T07:09:48;18.48;;;8.93;;
20894;SDS011;10607;42.066;24.742;2023-05-10T07:12:15;16.13;;;9.32;;
20894;SDS011;10607;42.066;24.742;2023-05-10T07:14:40;11.25;;;7.68;;
20894;SDS011;10607;42.066;24.742;2023-05-10T07:17:05;11.55;;;7.72;;
20894;SDS011;10607;42.066;24.742;2023-05-10T07:19:31;15.88;;;7.95;;
20894;SDS011;10607;42.066;24.742;2023-05-10T07:21:57;18.65;;;9.30;;
20894;SDS011;10607;42.066;24.742;2023-05-10T07:24:23;15.93;;;7.93;;
20894;SDS011;10607;42.066;24.742;2023-05-10T07:26:48;13.68;;;8.18;;
20894;SDS011;10607;42.066;24.742;2023-05-10T07:29:13;11.50;;;8.13;;
20894;SDS011;10607;42.066;24.742;2023-05-10T07:31:39;8.27;;;6.70;;
20894;SDS011;10607;42.066;24.742;2023-05-10T07:34:06;9.45;;;6.13;;
20894;SDS011;10607;42.066;24.742;2023-05-10T07:36:32;9.65;;;6.68;;
20894;SDS011;10607;42.066;24.742;2023-05-10T07:38:57;10.00;;;6.28;;
20894;SDS011;10607;42.066;24.742;2023-05-10T07:41:22;11.10;;;6.05;;
20894;SDS011;10607;42.066;24.742;2023-05-10T07:43:48;15.10;;;6.57;;
20894;SDS011;10607;42.066;24.742;2023-05-10T07:46:13;10.68;;;7.30;;
20894;SDS011;10607;42.066;24.742;2023-05-10T07:48:38;12.05;;;7.88;;
20894;SDS011;10607;42.066;24.742;2023-05-10T07:51:04;8.05;;;5.63;;
20894;SDS011;10607;42.066;24.742;2023-05-10T07:53:29;11.93;;;7.03;;
20894;SDS011;10607;42.066;24.742;2023-05-10T07:55:57;11.68;;;6.30;;
20894;SDS011;10607;42.066;24.742;2023-05-10T07:58:23;9.32;;;6.57;;
20894;SDS011;10607;42.066;24.742;2023-05-10T08:00:48;14.57;;;6.88;;
20894;SDS011;10607;42.066;24.742;2023-05-10T08:03:14;10.52;;;6.50;;
20894;SDS011;10607;42.066;24.742;2023-05-10T08:05:39;16.38;;;5.60;;
20894;SDS011;10607;42.066;24.742;2023-05-10T08:08:05;9.00;;;5.72;;
20894;SDS011;10607;42.066;24.742;2023-05-10T08:10:31;7.57;;;5.50;;
20894;SDS011;10607;42.066;24.742;2023-05-10T08:12:56;13.65;;;6.03;;
20894;SDS011;10607;42.066;24.742;2023-05-10T08:15:23;12.45;;;6.93;;
20894;SDS011;10607;42.066;24.742;2023-05-10T08:17:48;7.88;;;5.47;;
20894;SDS011;10607;42.066;24.742;2023-05-10T08:20:14;10.30;;;7.22;;
20894;SDS011;10607;42.066;24.742;2023-05-10T08:22:41;13.70;;;6.20;;
20894;SDS011;10607;42.066;24.742;2023-05-10T08:25:07;10.82;;;5.60;;
20894;SDS011;10607;42.066;24.742;2023-05-10T08:27:32;6.40;;;5.43;;
20894;SDS011;10607;42.066;24.742;2023-05-10T08:29:57;9.40;;;5.78;;
20894;SDS011;10607;42.066;24.742;2023-05-10T08:32:23;11.20;;;5.95;;
20894;SDS011;10607;42.066;24.742;2023-05-10T08:34:48;11.23;;;5.72;;
20894;SDS011;10607;42.066;24.742;2023-05-10T08:37:13;16.77;;;6.55;;
20894;SDS011;10607;42.066;24.742;2023-05-10T08:39:39;9.00;;;4.80;;
20894;SDS011;10607;42.066;24.742;2023-05-10T08:42:04;7.25;;;4.85;;
20894;SDS011;10607;42.066;24.742;2023-05-10T08:44:32;9.15;;;5.65;;
20894;SDS011;10607;42.066;24.742;2023-05-10T08:46:59;9.02;;;5.15;;
20894;SDS011;10607;42.066;24.742;2023-05-10T08:49:25;15.85;;;7.07;;
20894;SDS011;10607;42.066;24.742;2023-05-10T08:51:52;12.63;;;6.10;;
20894;SDS011;10607;42.066;24.742;2023-05-10T08:54:18;6.43;;;4.55;;
20894;SDS011;10607;42.066;24.742;2023-05-10T08:56:44;12.57;;;5.47;;
20894;SDS011;10607;42.066;24.742;2023-05-10T08:59:09;11.95;;;5.97;;
20894;SDS011;10607;42.066;24.742;2023-05-10T09:01:35;8.63;;;5.53;;
20894;SDS011;10607;42.066;24.742;2023-05-10T09:04:00;8.43;;;5.30;;
20894;SDS011;10607;42.066;24.742;2023-05-10T09:06:25;9.18;;;5.20;;
20894;SDS011;10607;42.066;24.742;2023-05-10T09:08:51;10.75;;;6.10;;
20894;SDS011;10607;42.066;24.742;2023-05-10T09:11:17;8.25;;;5.47;;
20894;SDS011;10607;42.066;24.742;2023-05-10T09:13:42;9.88;;;5.78;;
20894;SDS011;10607;42.066;24.742;2023-05-10T09:16:08;11.05;;;6.72;;
20894;SDS011;10607;42.066;24.742;2023-05-10T09:18:33;9.27;;;5.72;;
20894;SDS011;10607;42.066;24.742;2023-05-10T09:20:59;8.70;;;5.20;;
20894;SDS011;10607;42.066;24.742;2023-05-10T09:23:24;9.50;;;6.18;;
20894;SDS011;10607;42.066;24.742;2023-05-10T09:26:02;7.97;;;5.18;;
20894;SDS011;10607;42.066;24.742;2023-05-10T09:31:13;8.32;;;6.60;;
20894;SDS011;10607;42.066;24.742;2023-05-10T09:33:45;8.63;;;5.85;;
20894;SDS011;10607;42.066;24.742;2023-05-10T09:36:11;10.95;;;5.85;;
20894;SDS011;10607;42.066;24.742;2023-05-10T09:38:46;13.27;;;6.72;;
20894;SDS011;10607;42.066;24.742;2023-05-10T09:41:16;15.02;;;6.35;;
20894;SDS011;10607;42.066;24.742;2023-05-10T09:43:42;13.27;;;7.68;;
20894;SDS011;10607;42.066;24.742;2023-05-10T09:46:10;14.40;;;6.30;;
20894;SDS011;10607;42.066;24.742;2023-05-10T09:48:46;7.40;;;5.82;;
20894;SDS011;10607;42.066;24.742;2023-05-10T09:51:18;15.13;;;6.97;;
20894;SDS011;10607;42.066;24.742;2023-05-10T09:53:44;12.07;;;5.57;;
20894;SDS011;10607;42.066;24.742;2023-05-10T09:56:09;8.38;;;5.63;;
20894;SDS011;10607;42.066;24.742;2023-05-10T09:58:35;9.18;;;5.07;;
20894;SDS011;10607;42.066;24.742;2023-05-10T10:01:02;7.75;;;5.68;;
20894;SDS011;10607;42.066;24.742;2023-05-10T10:03:27;6.35;;;5.38;;
20894;SDS011;10607;42.066;24.742;2023-05-10T10:05:54;5.78;;;4.55;;
20894;SDS011;10607;42.066;24.742;2023-05-10T10:08:20;8.43;;;5.65;;
20894;SDS011;10607;42.066;24.742;2023-05-10T10:10:46;8.60;;;4.78;;
20894;SDS011;10607;42.066;24.742;2023-05-10T10:13:12;6.18;;;4.93;;
20894;SDS011;10607;42.066;24.742;2023-05-10T10:15:37;11.63;;;5.10;;
20894;SDS011;10607;42.066;24.742;2023-05-10T10:18:03;9.70;;;6.03;;
20894;SDS011;10607;42.066;24.742;2023-05-10T10:20:30;12.90;;;5.03;;
20894;SDS011;10607;42.066;24.742;2023-05-10T10:22:56;7.55;;;5.03;;
20894;SDS011;10607;42.066;24.742;2023-05-10T10:25:21;6.70;;;5.25;;
20894;SDS011;10607;42.066;24.742;2023-05-10T10:35:09;12.30;;;5.80;;
20894;SDS011;10607;42.066;24.742;2023-05-10T10:37:42;6.07;;;5.00;;
20894;SDS011;10607;42.066;24.742;2023-05-10T10:40:30;7.78;;;5.18;;
20894;SDS011;10607;42.066;24.742;2023-05-10T10:42:56;7.18;;;4.93;;
20894;SDS011;10607;42.066;24.742;2023-05-10T10:45:22;7.72;;;5.28;;
20894;SDS011;10607;42.066;24.742;2023-05-10T10:47:48;5.68;;;4.97;;
20894;SDS011;10607;42.066;24.742;2023-05-10T10:50:13;7.97;;;4.78;;
20894;SDS011;10607;42.066;24.742;2023-05-10T10:52:41;8.73;;;4.97;;
20894;SDS011;10607;42.066;24.742;2023-05-10T10:55:40;5.63;;;4.38;;
20894;SDS011;10607;42.066;24.742;2023-05-10T10:57:58;7.32;;;4.70;;
20894;SDS011;10607;42.066;24.742;2023-05-10T11:00:31;6.20;;;4.50;;
20894;SDS011;10607;42.066;24.742;2023-05-10T11:02:57;7.18;;;4.50;;
20894;SDS011;10607;42.066;24.742;2023-05-10T11:05:23;7.03;;;4.40;;
20894;SDS011;10607;42.066;24.742;2023-05-10T11:07:57;8.27;;;4.43;;
20894;SDS011;10607;42.066;24.742;2023-05-10T11:10:23;7.70;;;4.05;;
20894;SDS011;10607;42.066;24.742;2023-05-10T11:13:07;7.32;;;4.72;;
20894;SDS011;10607;42.066;24.742;2023-05-10T11:15:34;7.35;;;5.30;;
20894;SDS011;10607;42.066;24.742;2023-05-10T11:18:00;9.32;;;4.75;;
20894;SDS011;10607;42.066;24.742;2023-05-10T11:20:40;4.57;;;3.78;;
20894;SDS011;10607;42.066;24.742;2023-05-10T11:23:13;6.88;;;3.80;;
20894;SDS011;10607;42.066;24.742;2023-05-10T11:25:44;5.35;;;4.82;;
20894;SDS011;10607;42.066;24.742;2023-05-10T11:28:09;9.30;;;4.35;;
20894;SDS011;10607;42.066;24.742;2023-05-10T11:30:36;5.00;;;4.15;;
20894;SDS011;10607;42.066;24.742;2023-05-10T11:33:01;3.97;;;3.55;;
20894;SDS011;10607;42.066;24.742;2023-05-10T11:35:27;6.55;;;4.60;;
20894;SDS011;10607;42.066;24.742;2023-05-10T11:37:52;6.00;;;4.40;;
20894;SDS011;10607;42.066;24.742;2023-05-10T11:40:18;6.65;;;5.30;;
20894;SDS011;10607;42.066;24.742;2023-05-10T11:42:44;10.55;;;4.68;;
20894;SDS011;10607;42.066;24.742;2023-05-10T11:45:10;7.32;;;4.40;;
20894;SDS011;10607;42.066;24.742;2023-05-10T11:47:35;10.00;;;6.13;;
20894;SDS011;10607;42.066;24.742;2023-05-10T11:50:02;5.97;;;4.57;;
20894;SDS011;10607;42.066;24.742;2023-05-10T11:52:27;8.27;;;4.72;;
20894;SDS011;10607;42.066;24.742;2023-05-10T11:54:53;6.22;;;5.18;;
20894;SDS011;10607;42.066;24.742;2023-05-10T11:57:19;8.68;;;5.47;;
20894;SDS011;10607;42.066;24.742;2023-05-10T11:59:45;8.05;;;5.38;;
20894;SDS011;10607;42.066;24.742;2023-05-10T12:02:11;6.93;;;4.97;;
20894;SDS011;10607;42.066;24.742;2023-05-10T12:04:36;6.97;;;4.95;;
20894;SDS011;10607;42.066;24.742;2023-05-10T12:07:01;6.45;;;5.57;;
20894;SDS011;10607;42.066;24.742;2023-05-10T12:09:27;8.13;;;5.78;;
20894;SDS011;10607;42.066;24.742;2023-05-10T12:11:55;10.05;;;5.18;;
20894;SDS011;10607;42.066;24.742;2023-05-10T12:14:21;10.43;;;5.95;;
20894;SDS011;10607;42.066;24.742;2023-05-10T12:16:47;11.88;;;5.50;;
20894;SDS011;10607;42.066;24.742;2023-05-10T12:19:12;7.72;;;5.82;;
20894;SDS011;10607;42.066;24.742;2023-05-10T12:21:43;7.15;;;5.63;;
20894;SDS011;10607;42.066;24.742;2023-05-10T12:24:09;7.32;;;5.03;;
20894;SDS011;10607;42.066;24.742;2023-05-10T12:26:35;8.48;;;5.38;;
20894;SDS011;10607;42.066;24.742;2023-05-10T12:29:13;6.40;;;5.03;;
20894;SDS011;10607;42.066;24.742;2023-05-10T12:34:34;8.88;;;6.00;;
20894;SDS011;10607;42.066;24.742;2023-05-10T12:37:00;10.50;;;5.97;;
20894;SDS011;10607;42.066;24.742;2023-05-10T12:39:37;6.22;;;5.55;;
20894;SDS011;10607;42.066;24.742;2023-05-10T12:42:03;6.25;;;5.60;;
20894;SDS011;10607;42.066;24.742;2023-05-10T12:44:28;8.05;;;6.35;;
20894;SDS011;10607;42.066;24.742;2023-05-10T12:46:53;10.13;;;7.07;;
20894;SDS011;10607;42.066;24.742;2023-05-10T12:49:19;8.18;;;6.63;;
20894;SDS011;10607;42.066;24.742;2023-05-10T12:51:44;9.45;;;6.47;;
20894;SDS011;10607;42.066;24.742;2023-05-10T12:54:09;8.23;;;6.20;;
20894;SDS011;10607;42.066;24.742;2023-05-10T12:56:35;12.52;;;7.10;;
20894;SDS011;10607;42.066;24.742;2023-05-10T12:59:00;13.63;;;7.30;;
20894;SDS011;10607;42.066;24.742;2023-05-10T13:01:25;9.05;;;6.80;;
20894;SDS011;10607;42.066;24.742;2023-05-10T13:03:51;9.15;;;7.30;;
20894;SDS011;10607;42.066;24.742;2023-05-10T13:06:16;12.90;;;7.38;;
20894;SDS011;10607;42.066;24.742;2023-05-10T13:08:41;10.77;;;7.90;;
20894;SDS011;10607;42.066;24.742;2023-05-10T13:11:06;10.38;;;7.07;;
20894;SDS011;10607;42.066;24.742;2023-05-10T13:13:32;11.20;;;7.10;;
20894;SDS011;10607;42.066;24.742;2023-05-10T13:15:58;10.77;;;7.57;;
20894;SDS011;10607;42.066;24.742;2023-05-10T13:18:23;8.23;;;7.43;;
20894;SDS011;10607;42.066;24.742;2023-05-10T13:20:49;12.88;;;6.85;;
20894;SDS011;10607;42.066;24.742;2023-05-10T13:23:14;11.50;;;6.38;;
20894;SDS011;10607;42.066;24.742;2023-05-10T13:25:39;7.85;;;6.40;;
20894;SDS011;10607;42.066;24.742;2023-05-10T13:28:05;11.30;;;6.85;;
20894;SDS011;10607;42.066;24.742;2023-05-10T13:30:30;7.80;;;6.95;;
20894;SDS011;10607;42.066;24.742;2023-05-10T13:32:56;13.75;;;7.50;;
20894;SDS011;10607;42.066;24.742;2023-05-10T13:35:21;8.27;;;6.60;;
20894;SDS011;10607;42.066;24.742;2023-05-10T13:37:46;9.75;;;6.57;;
20894;SDS011;10607;42.066;24.742;2023-05-10T13:40:11;8.50;;;6.57;;
20894;SDS011;10607;42.066;24.742;2023-05-10T13:42:37;8.90;;;7.05;;
20894;SDS011;10607;42.066;24.742;2023-05-10T13:45:02;9.68;;;6.85;;
20894;SDS011;10607;42.066;24.742;2023-05-10T13:47:28;11.23;;;6.32;;
20894;SDS011;10607;42.066;24.742;2023-05-10T13:49:53;7.20;;;6.22;;
20894;SDS011;10607;42.066;24.742;2023-05-10T13:52:18;9.82;;;6.40;;
20894;SDS011;10607;42.066;24.742;2023-05-10T13:54:44;8.50;;;6.40;;
20894;SDS011;10607;42.066;24.742;2023-05-10T13:57:09;10.23;;;6.90;;
20894;SDS011;10607;42.066;24.742;2023-05-10T13:59:36;9.32;;;6.53;;
20894;SDS011;10607;42.066;24.742;2023-05-10T14:02:02;8.73;;;6.13;;
20894;SDS011;10607;42.066;24.742;2023-05-10T14:04:28;8.95;;;6.32;;
20894;SDS011;10607;42.066;24.742;2023-05-10T14:06:53;10.30;;;7.50;;
20894;SDS011;10607;42.066;24.742;2023-05-10T14:09:18;9.05;;;7.43;;
20894;SDS011;10607;42.066;24.742;2023-05-10T14:11:44;14.60;;;8.95;;
20894;SDS011;10607;42.066;24.742;2023-05-10T14:14:10;9.88;;;8.25;;
20894;SDS011;10607;42.066;24.742;2023-05-10T14:16:35;9.27;;;8.38;;
20894;SDS011;10607;42.066;24.742;2023-05-10T14:19:00;11.45;;;9.32;;
20894;SDS011;10607;42.066;24.742;2023-05-10T14:21:26;9.77;;;8.00;;
20894;SDS011;10607;42.066;24.742;2023-05-10T14:23:53;11.32;;;8.05;;
20894;SDS011;10607;42.066;24.742;2023-05-10T14:26:19;11.60;;;8.88;;
20894;SDS011;10607;42.066;24.742;2023-05-10T14:28:45;12.48;;;7.18;;
20894;SDS011;10607;42.066;24.742;2023-05-10T14:31:11;8.02;;;7.22;;
20894;SDS011;10607;42.066;24.742;2023-05-10T14:33:36;8.65;;;7.10;;
20894;SDS011;10607;42.066;24.742;2023-05-10T14:36:01;6.65;;;5.82;;
20894;SDS011;10607;42.066;24.742;2023-05-10T14:38:28;8.50;;;7.50;;
20894;SDS011;10607;42.066;24.742;2023-05-10T14:40:53;9.13;;;7.50;;
20894;SDS011;10607;42.066;24.742;2023-05-10T14:43:18;8.98;;;5.88;;
20894;SDS011;10607;42.066;24.742;2023-05-10T14:45:44;8.43;;;6.75;;
20894;SDS011;10607;42.066;24.742;2023-05-10T14:48:10;10.55;;;7.50;;
20894;SDS011;10607;42.066;24.742;2023-05-10T14:50:40;8.98;;;6.55;;
20894;SDS011;10607;42.066;24.742;2023-05-10T14:53:05;12.05;;;7.40;;